createdAt,value
2023-03-29T00:00:15.145Z,12.02
2023-03-29T00:02:48.550Z,12.00
2023-03-29T00:05:18.468Z,12.05
2023-03-29T00:07:47.006Z,12.06
2023-03-29T00:10:15.263Z,12.05
2023-03-29T00:12:43.534Z,12.03
2023-03-29T00:15:12.619Z,12.05
2023-03-29T00:17:40.977Z,12.15
2023-03-29T00:20:12.436Z,12.12
2023-03-29T00:22:42.267Z,12.08
2023-03-29T00:25:11.427Z,12.03
2023-03-29T00:27:39.987Z,12.00
2023-03-29T00:30:15.055Z,11.99
2023-03-29T00:32:43.812Z,11.99
2023-03-29T00:35:13.991Z,11.96
2023-03-29T00:37:42.396Z,11.99
2023-03-29T00:40:12.867Z,12.03
2023-03-29T00:42:44.867Z,12.03
2023-03-29T00:45:20.212Z,11.92
2023-03-29T00:47:51.671Z,11.82
2023-03-29T00:50:25.941Z,11.90
2023-03-29T00:52:59.358Z,11.82
2023-03-29T00:55:31.816Z,11.74
2023-03-29T00:58:01.769Z,11.79
2023-03-29T01:00:34.604Z,11.86
2023-03-29T01:03:13.785Z,11.76
2023-03-29T01:05:47.767Z,11.88
2023-03-29T01:08:21.744Z,11.87
2023-03-29T01:10:54.496Z,11.89
2023-03-29T01:13:28.385Z,11.79
2023-03-29T01:15:58.441Z,11.87
2023-03-29T01:18:26.792Z,11.93
2023-03-29T01:21:12.597Z,11.89
2023-03-29T01:24:08.907Z,11.90
2023-03-29T01:26:44.987Z,11.86
2023-03-29T01:29:18.853Z,11.89
2023-03-29T01:31:51.810Z,11.83
2023-03-29T01:34:27.398Z,11.90
2023-03-29T01:37:04.479Z,11.79
2023-03-29T01:39:35.055Z,11.83
2023-03-29T01:42:17.203Z,11.88
2023-03-29T01:44:56.482Z,11.89
2023-03-29T01:47:31.602Z,11.85
2023-03-29T01:50:08.842Z,11.83
2023-03-29T01:52:41.267Z,11.79
2023-03-29T01:55:13.206Z,11.97
2023-03-29T01:57:45.755Z,11.93
2023-03-29T02:00:19.720Z,11.98
2023-03-29T02:02:49.829Z,11.94
2023-03-29T02:05:19.836Z,12.02
2023-03-29T02:07:50.587Z,11.97
2023-03-29T02:10:20.139Z,11.92
2023-03-29T02:12:48.514Z,11.94
2023-03-29T02:15:20.303Z,12.10
2023-03-29T02:17:51.092Z,12.06
2023-03-29T02:20:23.815Z,12.06
2023-03-29T02:22:59.733Z,12.05
2023-03-29T02:25:28.124Z,12.12
2023-03-29T02:27:57.703Z,12.12
2023-03-29T02:30:31.711Z,12.01
2023-03-29T02:33:03.230Z,11.89
2023-03-29T02:35:36.423Z,11.97
2023-03-29T02:38:07.538Z,12.05
2023-03-29T02:40:37.787Z,12.12
2023-03-29T02:43:08.737Z,12.14
2023-03-29T02:45:41.873Z,12.21
2023-03-29T02:48:13.802Z,12.15
2023-03-29T02:50:47.257Z,12.18
2023-03-29T02:53:18.927Z,12.17
2023-03-29T02:55:48.656Z,12.06
2023-03-29T02:58:17.118Z,12.08
2023-03-29T03:00:49.321Z,12.11
2023-03-29T03:03:17.653Z,12.07
2023-03-29T03:05:50.457Z,12.06
2023-03-29T03:08:18.728Z,12.05
2023-03-29T03:10:47.643Z,12.14
2023-03-29T03:13:15.878Z,12.10
2023-03-29T03:15:48.821Z,12.06
2023-03-29T03:18:18.369Z,11.88
2023-03-29T03:20:55.938Z,11.84
2023-03-29T03:23:24.995Z,11.99
2023-03-29T03:25:53.748Z,11.98
2023-03-29T03:28:24.336Z,12.12
2023-03-29T03:30:52.993Z,11.91
2023-03-29T03:33:27.017Z,11.96
2023-03-29T03:36:15.421Z,12.04
2023-03-29T03:38:46.701Z,12.12
2023-03-29T03:41:14.758Z,12.08
2023-03-29T03:43:45.957Z,12.07
2023-03-29T03:46:14.316Z,12.08
2023-03-29T03:48:43.808Z,12.10
2023-03-29T03:51:24.556Z,12.00
2023-03-29T03:53:52.811Z,11.98
2023-03-29T03:56:48.180Z,11.92
2023-03-29T03:59:26.654Z,12.02
2023-03-29T04:02:02.756Z,12.13
2023-03-29T04:04:32.446Z,11.96
2023-03-29T04:07:17.924Z,12.12
2023-03-29T04:09:46.246Z,12.13
2023-03-29T04:12:27.115Z,12.15
2023-03-29T04:14:56.118Z,12.14
2023-03-29T04:17:26.199Z,12.18
2023-03-29T04:20:06.912Z,12.22
2023-03-29T04:22:35.383Z,12.25
2023-03-29T04:25:04.567Z,12.28
2023-03-29T04:27:47.779Z,12.10
2023-03-29T04:30:30.400Z,11.99
2023-03-29T04:33:01.319Z,11.98
2023-03-29T04:35:31.558Z,11.99
2023-03-29T04:38:00.124Z,11.88
2023-03-29T04:40:29.224Z,11.98
2023-03-29T04:43:11.268Z,11.94
2023-03-29T04:45:46.611Z,12.11
2023-03-29T04:48:26.512Z,12.08
2023-03-29T04:50:56.052Z,12.08
2023-03-29T04:53:24.105Z,12.19
2023-03-29T04:55:52.649Z,12.30
2023-03-29T04:58:32.785Z,12.26
2023-03-29T05:01:02.384Z,12.27
2023-03-29T05:03:36.692Z,12.17
2023-03-29T05:06:14.916Z,12.21
2023-03-29T05:08:44.742Z,12.28
2023-03-29T05:11:42.260Z,12.33
2023-03-29T05:14:10.520Z,12.30
2023-03-29T05:16:39.207Z,12.27
2023-03-29T05:19:07.474Z,12.27
2023-03-29T05:21:39.901Z,12.29
2023-03-29T05:24:11.007Z,12.32
2023-03-29T05:26:47.637Z,12.41
2023-03-29T05:29:15.761Z,12.41
2023-03-29T05:31:47.044Z,12.33
2023-03-29T05:34:17.327Z,12.42
2023-03-29T05:36:51.732Z,12.37
2023-03-29T05:39:21.136Z,12.35
2023-03-29T05:41:49.198Z,12.35
2023-03-29T05:44:28.497Z,12.33
2023-03-29T05:47:04.100Z,12.34
2023-03-29T05:49:32.481Z,12.37
2023-03-29T05:52:08.367Z,12.43
2023-03-29T05:54:38.294Z,12.43
2023-03-29T05:57:07.651Z,12.47
2023-03-29T05:59:36.180Z,12.43
2023-03-29T06:02:05.078Z,12.44
2023-03-29T06:04:36.630Z,12.43
2023-03-29T06:07:26.108Z,12.45
2023-03-29T06:10:23.756Z,12.42
2023-03-29T06:12:58.256Z,12.48
2023-03-29T06:15:27.163Z,12.53
2023-03-29T06:18:01.090Z,12.53
2023-03-29T06:20:29.351Z,12.47
2023-03-29T06:23:05.016Z,12.33
2023-03-29T06:25:34.155Z,12.43
2023-03-29T06:28:02.762Z,12.33
2023-03-29T06:30:30.989Z,12.43
2023-03-29T06:33:01.033Z,12.27
2023-03-29T06:35:52.263Z,12.32
2023-03-29T06:38:28.641Z,12.22
2023-03-29T06:41:02.361Z,12.19
2023-03-29T06:43:39.142Z,12.20
2023-03-29T06:46:12.276Z,12.22
2023-03-29T06:49:01.093Z,12.26
2023-03-29T06:51:37.554Z,12.25
2023-03-29T06:54:07.483Z,12.20
2023-03-29T06:56:37.117Z,12.25
2023-03-29T06:59:10.582Z,12.17
2023-03-29T07:01:45.358Z,12.14
2023-03-29T07:04:32.246Z,12.25
2023-03-29T07:07:22.868Z,12.29
2023-03-29T07:10:01.844Z,12.29
2023-03-29T07:13:00.714Z,12.33
2023-03-29T07:15:30.545Z,12.47
2023-03-29T07:18:21.066Z,12.49
2023-03-29T07:20:49.329Z,12.50
2023-03-29T07:23:18.137Z,12.50
2023-03-29T07:25:48.785Z,12.61
2023-03-29T07:28:17.053Z,12.61
2023-03-29T07:30:45.180Z,12.66
2023-03-29T07:33:16.992Z,12.62
2023-03-29T07:35:50.841Z,12.69
2023-03-29T07:38:18.941Z,12.86
2023-03-29T07:40:54.557Z,12.90
2023-03-29T07:43:41.771Z,13.03
2023-03-29T07:46:12.931Z,13.01
2023-03-29T07:48:41.351Z,12.97
2023-03-29T07:51:11.893Z,13.01
2023-03-29T07:53:45.932Z,13.06
2023-03-29T07:56:33.002Z,13.19
2023-03-29T07:59:12.973Z,13.38
2023-03-29T08:01:43.145Z,13.38
2023-03-29T08:04:21.669Z,13.58
2023-03-29T08:07:08.873Z,13.86
2023-03-29T08:09:56.387Z,14.13
2023-03-29T08:12:37.361Z,14.29
2023-03-29T08:15:07.436Z,14.34
2023-03-29T08:17:36.553Z,14.19
2023-03-29T08:20:09.628Z,14.17
2023-03-29T08:22:40.545Z,14.19
2023-03-29T08:25:31.576Z,14.08
2023-03-29T08:28:01.604Z,14.04
2023-03-29T08:30:38.244Z,14.32
2023-03-29T08:33:07.089Z,14.41
2023-03-29T08:35:35.222Z,14.53
2023-03-29T08:38:15.030Z,14.66
2023-03-29T08:40:43.669Z,14.83
2023-03-29T08:43:46.646Z,14.78
2023-03-29T08:46:35.132Z,14.78
2023-03-29T08:49:19.976Z,14.57
2023-03-29T08:51:51.873Z,14.56
2023-03-29T08:54:25.006Z,14.53
2023-03-29T08:57:27.217Z,14.56
2023-03-29T09:00:05.130Z,14.64
2023-03-29T09:02:36.689Z,14.56
2023-03-29T09:05:18.657Z,14.77
2023-03-29T09:07:57.035Z,14.71
2023-03-29T09:10:35.609Z,14.84
2023-03-29T09:13:15.922Z,15.01
2023-03-29T09:15:53.060Z,15.28
2023-03-29T09:18:59.240Z,15.49
2023-03-29T09:21:33.529Z,15.74
2023-03-29T09:24:21.851Z,15.77
2023-03-29T09:27:10.556Z,15.70
2023-03-29T09:29:57.326Z,15.86
2023-03-29T09:32:48.937Z,15.85
2023-03-29T09:35:23.618Z,15.90
2023-03-29T09:37:55.115Z,16.54
2023-03-29T09:40:27.429Z,16.94
2023-03-29T09:43:29.960Z,16.77
2023-03-29T09:46:03.794Z,16.75
2023-03-29T09:48:37.795Z,16.82
2023-03-29T09:51:09.114Z,17.04
2023-03-29T09:53:39.612Z,17.28
2023-03-29T09:56:30.787Z,17.40
2023-03-29T09:59:14.917Z,17.54
2023-03-29T10:01:45.597Z,17.53
2023-03-29T10:04:17.636Z,17.87
2023-03-29T10:06:53.942Z,18.27
2023-03-29T10:09:25.262Z,18.22
2023-03-29T10:12:03.270Z,18.07
2023-03-29T10:14:37.003Z,18.32
2023-03-29T10:17:08.736Z,18.54
2023-03-29T10:19:38.142Z,18.30
2023-03-29T10:22:08.149Z,18.04
2023-03-29T10:24:36.256Z,17.97
2023-03-29T10:27:07.885Z,17.95
2023-03-29T10:29:39.200Z,17.95
2023-03-29T10:32:16.697Z,17.84
2023-03-29T10:34:47.977Z,17.73
2023-03-29T10:37:19.350Z,17.67
2023-03-29T10:39:49.092Z,17.64
2023-03-29T10:42:20.701Z,17.48
2023-03-29T10:44:55.079Z,17.39
2023-03-29T10:47:23.869Z,17.39
2023-03-29T10:49:56.937Z,17.41
2023-03-29T10:52:26.109Z,17.47
2023-03-29T10:54:56.992Z,17.60
2023-03-29T10:57:31.631Z,17.54
2023-03-29T11:00:06.979Z,17.35
2023-03-29T11:03:05.533Z,17.41
2023-03-29T11:05:40.512Z,17.33
2023-03-29T11:08:20.746Z,17.34
2023-03-29T11:11:00.306Z,17.36
2023-03-29T11:13:37.442Z,17.51
2023-03-29T11:16:18.648Z,17.55
2023-03-29T11:19:14.997Z,17.62
2023-03-29T11:21:53.752Z,17.60
2023-03-29T11:24:30.422Z,17.38
2023-03-29T11:27:11.001Z,17.28
2023-03-29T11:29:46.543Z,17.34
2023-03-29T11:32:20.093Z,17.47
2023-03-29T11:34:59.586Z,17.41
2023-03-29T11:37:34.112Z,17.52
2023-03-29T11:40:17.227Z,17.64
2023-03-29T11:42:48.978Z,17.72
2023-03-29T11:45:24.450Z,17.84
2023-03-29T11:47:54.717Z,17.99
2023-03-29T11:50:26.740Z,18.10
2023-03-29T11:53:00.515Z,18.17
2023-03-29T11:55:31.525Z,18.27
2023-03-29T11:58:03.592Z,18.28
2023-03-29T12:00:36.478Z,18.29
2023-03-29T12:03:13.049Z,18.39
2023-03-29T12:05:46.898Z,18.41
2023-03-29T12:08:20.259Z,18.46
2023-03-29T12:10:54.137Z,18.49
2023-03-29T12:13:25.661Z,18.48
2023-03-29T12:15:58.790Z,18.42
2023-03-29T12:18:33.360Z,18.55
2023-03-29T12:21:04.704Z,18.71
2023-03-29T12:23:36.545Z,19.01
2023-03-29T12:26:10.775Z,19.25
2023-03-29T12:29:11.116Z,19.15
2023-03-29T12:31:45.775Z,19.14
2023-03-29T12:34:36.971Z,19.23
2023-03-29T12:37:47.048Z,18.97
2023-03-29T12:40:44.973Z,19.15
2023-03-29T12:43:43.586Z,19.26
2023-03-29T12:46:35.586Z,19.43
2023-03-29T12:49:12.093Z,19.53
2023-03-29T12:51:43.789Z,19.60
2023-03-29T12:54:16.707Z,19.62
2023-03-29T12:57:00.318Z,19.60
2023-03-29T12:59:38.556Z,19.72
2023-03-29T13:02:28.423Z,19.86
2023-03-29T13:04:58.769Z,20.01
2023-03-29T13:07:33.816Z,20.09
2023-03-29T13:10:03.526Z,20.03
2023-03-29T13:12:40.129Z,20.00
2023-03-29T13:15:23.135Z,20.16
2023-03-29T13:17:58.720Z,20.25
2023-03-29T13:20:42.287Z,20.45
2023-03-29T13:23:33.637Z,20.44
2023-03-29T13:26:19.708Z,20.47
2023-03-29T13:29:07.894Z,20.40
2023-03-29T13:31:44.196Z,20.58
2023-03-29T13:34:23.916Z,20.62
2023-03-29T13:37:02.442Z,20.56
2023-03-29T13:39:33.144Z,20.70
2023-03-29T13:42:18.737Z,20.44
2023-03-29T13:44:49.245Z,20.03
2023-03-29T13:47:39.023Z,20.04
2023-03-29T13:50:16.593Z,20.09
2023-03-29T13:52:51.609Z,20.20
2023-03-29T13:55:25.259Z,20.34
2023-03-29T13:57:57.426Z,20.55
2023-03-29T14:00:32.361Z,20.40
2023-03-29T14:03:02.595Z,20.39
2023-03-29T14:05:34.402Z,20.39
2023-03-29T14:08:10.833Z,20.37
2023-03-29T14:10:44.061Z,20.49
2023-03-29T14:13:15.366Z,20.39
2023-03-29T14:15:51.263Z,20.31
2023-03-29T14:18:23.391Z,20.34
2023-03-29T14:20:55.862Z,20.27
2023-03-29T14:23:35.342Z,20.37
2023-03-29T14:26:14.019Z,20.44
2023-03-29T14:28:51.923Z,20.39
2023-03-29T14:31:25.494Z,20.44
2023-03-29T14:33:56.218Z,20.45
2023-03-29T14:36:34.737Z,20.28
2023-03-29T14:39:17.075Z,20.32
2023-03-29T14:41:51.898Z,20.27
2023-03-29T14:44:24.220Z,20.24
2023-03-29T14:47:03.403Z,20.22
2023-03-29T14:49:34.675Z,20.44
2023-03-29T14:52:04.672Z,20.34
2023-03-29T14:54:38.300Z,20.26
2023-03-29T14:57:08.707Z,20.33
2023-03-29T14:59:39.829Z,20.27
2023-03-29T15:02:24.259Z,20.30
2023-03-29T15:04:57.204Z,20.43
2023-03-29T15:07:27.089Z,20.15
2023-03-29T15:09:56.428Z,20.35
2023-03-29T15:12:24.925Z,20.47
2023-03-29T15:14:54.061Z,20.48
2023-03-29T15:17:49.602Z,20.42
2023-03-29T15:20:23.427Z,20.24
2023-03-29T15:22:58.900Z,20.19
2023-03-29T15:25:28.666Z,20.18
2023-03-29T15:28:01.020Z,20.13
2023-03-29T15:30:34.876Z,20.26
2023-03-29T15:33:24.913Z,20.30
2023-03-29T15:35:54.833Z,20.35
2023-03-29T15:38:30.218Z,20.33
2023-03-29T15:41:02.343Z,20.25
2023-03-29T15:43:31.111Z,20.17
2023-03-29T15:45:59.654Z,20.16
2023-03-29T15:48:30.461Z,20.03
2023-03-29T15:51:01.506Z,19.95
2023-03-29T15:53:31.132Z,19.94
2023-03-29T15:56:04.023Z,20.09
2023-03-29T15:58:34.708Z,20.20
2023-03-29T16:01:12.398Z,20.19
2023-03-29T16:03:42.333Z,20.12
2023-03-29T16:06:12.388Z,20.05
2023-03-29T16:08:41.890Z,19.89
2023-03-29T16:11:10.316Z,19.76
2023-03-29T16:13:38.610Z,19.73
2023-03-29T16:16:08.421Z,19.79
2023-03-29T16:18:36.892Z,19.83
2023-03-29T16:21:08.012Z,19.92
2023-03-29T16:23:36.798Z,19.81
2023-03-29T16:26:06.644Z,19.77
2023-03-29T16:28:35.159Z,19.66
2023-03-29T16:31:03.446Z,19.57
2023-03-29T16:33:31.817Z,19.57
2023-03-29T16:36:00.694Z,19.50
2023-03-29T16:38:30.757Z,19.46
2023-03-29T16:40:59.016Z,19.46
2023-03-29T16:43:27.723Z,19.36
2023-03-29T16:45:56.939Z,19.26
2023-03-29T16:48:25.394Z,19.23
2023-03-29T16:50:53.822Z,19.23
2023-03-29T16:53:23.792Z,19.24
2023-03-29T16:55:53.476Z,19.17
2023-03-29T16:58:23.084Z,19.15
2023-03-29T17:00:51.965Z,19.12
2023-03-29T17:03:20.304Z,19.08
2023-03-29T17:05:49.999Z,19.11
2023-03-29T17:08:18.831Z,19.05
2023-03-29T17:10:47.393Z,19.00
2023-03-29T17:13:17.029Z,19.01
2023-03-29T17:15:45.373Z,18.97
2023-03-29T17:18:16.624Z,19.01
2023-03-29T17:20:45.004Z,18.86
2023-03-29T17:23:13.289Z,18.92
2023-03-29T17:25:41.581Z,18.94
2023-03-29T17:28:10.052Z,19.00
2023-03-29T17:30:41.360Z,19.03
2023-03-29T17:33:11.268Z,19.00
2023-03-29T17:35:39.869Z,18.91
2023-03-29T17:38:08.136Z,18.85
2023-03-29T17:40:36.483Z,18.91
2023-03-29T17:43:05.038Z,18.89
2023-03-29T17:45:35.357Z,18.80
2023-03-29T17:48:06.538Z,18.78
2023-03-29T17:50:35.095Z,18.72
2023-03-29T17:53:03.634Z,18.72
2023-03-29T17:55:31.901Z,18.66
2023-03-29T17:58:00.176Z,18.65
2023-03-29T18:00:29.338Z,18.57
2023-03-29T18:02:57.841Z,18.62
2023-03-29T18:05:27.867Z,18.56
2023-03-29T18:07:56.455Z,18.61
2023-03-29T18:10:24.733Z,18.63
2023-03-29T18:12:53.115Z,18.67
2023-03-29T18:15:21.880Z,18.66
2023-03-29T18:17:50.354Z,18.58
2023-03-29T18:20:20.487Z,18.50
2023-03-29T18:22:50.162Z,18.40
2023-03-29T18:25:20.143Z,18.36
2023-03-29T18:27:48.461Z,18.37
2023-03-29T18:30:17.391Z,18.40
2023-03-29T18:32:46.048Z,18.36
2023-03-29T18:35:14.301Z,18.09
2023-03-29T18:37:42.793Z,18.08
2023-03-29T18:40:13.155Z,18.13
2023-03-29T18:42:41.558Z,18.14
2023-03-29T18:45:10.725Z,18.17
2023-03-29T18:47:39.073Z,18.11
2023-03-29T18:50:09.395Z,18.05
2023-03-29T18:52:37.907Z,17.99
2023-03-29T18:55:07.464Z,18.05
2023-03-29T18:57:37.376Z,18.08
2023-03-29T19:00:11.977Z,18.04
2023-03-29T19:02:40.780Z,18.12
2023-03-29T19:05:10.081Z,18.08
2023-03-29T19:07:38.405Z,18.06
2023-03-29T19:10:08.504Z,18.00
2023-03-29T19:12:38.144Z,18.04
2023-03-29T19:15:07.476Z,17.93
2023-03-29T19:17:35.839Z,17.94
2023-03-29T19:20:06.690Z,17.91
2023-03-29T19:22:35.012Z,17.84
2023-03-29T19:25:03.455Z,17.74
2023-03-29T19:27:31.905Z,17.76
2023-03-29T19:30:02.397Z,17.73
2023-03-29T19:32:33.187Z,17.79
2023-03-29T19:35:02.129Z,17.84
2023-03-29T19:37:30.360Z,17.69
2023-03-29T19:39:58.666Z,17.73
2023-03-29T19:42:26.964Z,17.72
2023-03-29T19:44:55.239Z,17.72
2023-03-29T19:47:24.925Z,17.66
2023-03-29T19:49:53.215Z,17.58
2023-03-29T19:52:24.091Z,17.56
2023-03-29T19:54:52.361Z,17.58
2023-03-29T19:57:21.466Z,17.34
2023-03-29T19:59:49.924Z,17.41
2023-03-29T20:02:18.241Z,17.48
2023-03-29T20:04:47.864Z,17.51
2023-03-29T20:07:16.117Z,17.52
2023-03-29T20:09:45.307Z,17.52
2023-03-29T20:12:13.749Z,17.58
2023-03-29T20:14:43.308Z,17.52
2023-03-29T20:17:11.980Z,17.50
2023-03-29T20:19:44.066Z,17.45
2023-03-29T20:22:13.848Z,17.33
2023-03-29T20:24:42.110Z,17.30
2023-03-29T20:27:11.092Z,17.33
2023-03-29T20:29:39.428Z,17.38
2023-03-29T20:32:09.155Z,17.38
2023-03-29T20:34:37.660Z,17.36
2023-03-29T20:37:06.367Z,17.47
2023-03-29T20:39:36.117Z,17.39
2023-03-29T20:42:04.478Z,17.40
2023-03-29T20:44:35.236Z,17.43
2023-03-29T20:47:05.034Z,17.43
2023-03-29T20:49:37.199Z,17.43
2023-03-29T20:52:08.439Z,17.41
2023-03-29T20:54:38.821Z,17.41
2023-03-29T20:57:08.051Z,17.39
2023-03-29T20:59:38.045Z,17.41
2023-03-29T21:02:08.749Z,17.19
2023-03-29T21:04:37.193Z,17.21
2023-03-29T21:07:08.239Z,17.31
2023-03-29T21:09:38.143Z,17.29
2023-03-29T21:12:06.700Z,17.34
2023-03-29T21:14:34.975Z,17.23
2023-03-29T21:17:03.368Z,17.24
2023-03-29T21:19:31.705Z,17.10
2023-03-29T21:22:00.042Z,17.26
2023-03-29T21:24:28.337Z,17.29
2023-03-29T21:26:58.095Z,17.22
2023-03-29T21:29:27.709Z,17.24
2023-03-29T21:31:56.457Z,17.21
2023-03-29T21:34:24.779Z,17.18
2023-03-29T21:36:53.119Z,17.11
2023-03-29T21:39:21.385Z,17.14
2023-03-29T21:41:49.700Z,17.19
2023-03-29T21:44:19.393Z,17.14
2023-03-29T21:46:47.761Z,17.18
2023-03-29T21:49:16.154Z,17.28
2023-03-29T21:51:44.484Z,17.22
2023-03-29T21:54:12.757Z,17.15
2023-03-29T21:56:41.157Z,17.17
2023-03-29T21:59:09.438Z,17.04
2023-03-29T22:01:39.274Z,16.98
2023-03-29T22:04:07.700Z,16.96
2023-03-29T22:06:36.278Z,16.94
2023-03-29T22:09:05.241Z,17.02
2023-03-29T22:11:34.671Z,17.03
2023-03-29T22:14:04.156Z,16.99
2023-03-29T22:16:32.583Z,16.99
2023-03-29T22:19:02.433Z,17.00
2023-03-29T22:21:32.244Z,16.85
2023-03-29T22:24:01.736Z,16.72
2023-03-29T22:26:32.421Z,16.85
2023-03-29T22:29:02.008Z,16.88
2023-03-29T22:31:30.829Z,16.88
2023-03-29T22:34:00.735Z,16.74
2023-03-29T22:36:32.429Z,16.66
2023-03-29T22:39:00.860Z,16.71
2023-03-29T22:41:29.567Z,16.80
2023-03-29T22:44:01.027Z,16.78
2023-03-29T22:46:29.639Z,16.76
2023-03-29T22:48:57.945Z,16.90
2023-03-29T22:51:26.320Z,16.86
2023-03-29T22:53:56.268Z,16.72
2023-03-29T22:56:24.896Z,16.81
2023-03-29T22:58:53.221Z,16.65
2023-03-29T23:01:21.700Z,16.79
2023-03-29T23:03:50.066Z,16.84
2023-03-29T23:06:18.437Z,16.81
2023-03-29T23:08:46.686Z,16.84
2023-03-29T23:11:16.405Z,16.88
2023-03-29T23:13:48.816Z,16.95
2023-03-29T23:16:17.437Z,16.96
2023-03-29T23:18:47.033Z,16.96
2023-03-29T23:21:15.431Z,16.94
2023-03-29T23:23:44.763Z,17.00
2023-03-29T23:26:13.093Z,16.79
2023-03-29T23:28:42.829Z,16.78
2023-03-29T23:31:13.565Z,16.94
2023-03-29T23:33:43.400Z,17.02
2023-03-29T23:36:13.083Z,17.03
2023-03-29T23:38:42.296Z,16.98
2023-03-29T23:41:13.003Z,16.96
2023-03-29T23:43:44.280Z,16.99
2023-03-29T23:46:15.311Z,16.94
2023-03-29T23:48:47.272Z,16.93
2023-03-29T23:51:18.186Z,16.92
2023-03-29T23:53:46.704Z,16.82
2023-03-29T23:56:15.070Z,16.92
2023-03-29T23:58:44.710Z,16.95
